TimeCST,TemperatureF,Dew PointF,Humidity,Sea Level PressureIn,VisibilityMPH,Wind Direction,Wind SpeedMPH,Gust SpeedMPH,PrecipitationIn,Events,Conditions,WindDirDegrees,DateUTC
12:54 AM,41.0,37.0,86,30.34,10.0,Calm,Calm,-,N/A,,Clear,0,2013-11-08 06:54:00
1:54 AM,39.0,36.0,89,30.34,10.0,Calm,Calm,-,N/A,,Partly Cloudy,0,2013-11-08 07:54:00
2:54 AM,39.0,36.0,89,30.34,10.0,Calm,Calm,-,N/A,,Clear,0,2013-11-08 08:54:00
3:54 AM,37.9,36.0,93,30.34,10.0,Calm,Calm,-,N/A,,Clear,0,2013-11-08 09:54:00
4:15 AM,37.4,35.6,93,30.35,10.0,Calm,Calm,-,N/A,,Partly Cloudy,0,2013-11-08 10:15:00
4:54 AM,37.4,33.8,87,30.35,10.0,Calm,Calm,-,N/A,,Partly Cloudy,0,2013-11-08 10:54:00
5:54 AM,37.9,35.1,89,30.36,10.0,Calm,Calm,-,N/A,,Scattered Clouds,0,2013-11-08 11:54:00
6:54 AM,37.9,35.1,89,30.38,10.0,Calm,Calm,-,N/A,,Scattered Clouds,0,2013-11-08 12:54:00
7:54 AM,44.1,37.9,79,30.39,10.0,Calm,Calm,-,N/A,,Partly Cloudy,0,2013-11-08 13:54:00
8:54 AM,48.9,39.0,69,30.39,10.0,East,5.8,-,N/A,,Partly Cloudy,90,2013-11-08 14:54:00
9:54 AM,54.0,39.0,57,30.39,10.0,East,5.8,-,N/A,,Partly Cloudy,90,2013-11-08 15:54:00
10:54 AM,57.9,36.0,44,30.38,10.0,Variable,6.9,-,N/A,,Scattered Clouds,0,2013-11-08 16:54:00
11:54 AM,60.1,35.1,39,30.34,10.0,East,6.9,-,N/A,,Scattered Clouds,90,2013-11-08 17:54:00
12:54 PM,61.0,30.9,32,30.31,10.0,Calm,Calm,-,N/A,,Scattered Clouds,0,2013-11-08 18:54:00
1:54 PM,62.1,34.0,35,30.29,10.0,South,5.8,-,N/A,,Scattered Clouds,180,2013-11-08 19:54:00
2:54 PM,62.1,30.9,31,30.28,10.0,SSE,4.6,-,N/A,,Scattered Clouds,150,2013-11-08 20:54:00
3:54 PM,61.0,32.0,34,30.25,10.0,South,4.6,-,N/A,,Scattered Clouds,170,2013-11-08 21:54:00
4:54 PM,57.0,36.0,45,30.25,10.0,South,5.8,-,N/A,,Scattered Clouds,180,2013-11-08 22:54:00
5:54 PM,54.0,36.0,51,30.25,10.0,South,4.6,-,N/A,,Scattered Clouds,190,2013-11-08 23:54:00
6:54 PM,50.0,37.0,61,30.24,10.0,South,6.9,-,N/A,,Scattered Clouds,190,2013-11-09 00:54:00
7:54 PM,50.0,35.1,57,30.24,10.0,South,4.6,-,N/A,,Scattered Clouds,170,2013-11-09 01:54:00
8:54 PM,50.0,36.0,59,30.23,10.0,South,5.8,-,N/A,,Mostly Cloudy,180,2013-11-09 02:54:00
9:54 PM,51.1,35.1,54,30.22,10.0,South,8.1,-,N/A,,Mostly Cloudy,170,2013-11-09 03:54:00
10:54 PM,50.0,36.0,59,30.23,10.0,South,4.6,-,N/A,,Mostly Cloudy,190,2013-11-09 04:54:00
11:54 PM,50.0,36.0,59,30.22,10.0,Calm,Calm,-,N/A,,Scattered Clouds,0,2013-11-09 05:54:00